sensor_id;sensor_type;location;lat;lon;timestamp;P1;durP1;ratioP1;P2;durP2;ratioP2
5961;SDS011;3007;50.770;0.250;2023-09-19T00:00:55;7.70;;;2.70;;
5961;SDS011;3007;50.770;0.250;2023-09-19T00:03:23;12.97;;;3.13;;
5961;SDS011;3007;50.770;0.250;2023-09-19T00:05:52;10.67;;;2.87;;
5961;SDS011;3007;50.770;0.250;2023-09-19T00:08:19;11.33;;;2.80;;
5961;SDS011;3007;50.770;0.250;2023-09-19T00:10:49;12.73;;;3.30;;
5961;SDS011;3007;50.770;0.250;2023-09-19T00:13:16;19.73;;;3.97;;
5961;SDS011;3007;50.770;0.250;2023-09-19T00:15:44;12.87;;;3.30;;
5961;SDS011;3007;50.770;0.250;2023-09-19T00:18:13;9.20;;;2.60;;
5961;SDS011;3007;50.770;0.250;2023-09-19T00:20:42;11.20;;;3.40;;
5961;SDS011;3007;50.770;0.250;2023-09-19T00:23:14;13.50;;;3.47;;
5961;SDS011;3007;50.770;0.250;2023-09-19T00:25:41;12.97;;;3.37;;
5961;SDS011;3007;50.770;0.250;2023-09-19T00:28:08;11.70;;;2.90;;
5961;SDS011;3007;50.770;0.250;2023-09-19T00:30:35;16.63;;;3.93;;
5961;SDS011;3007;50.770;0.250;2023-09-19T00:33:03;13.87;;;2.80;;
5961;SDS011;3007;50.770;0.250;2023-09-19T00:35:32;17.23;;;3.80;;
5961;SDS011;3007;50.770;0.250;2023-09-19T00:37:59;11.93;;;3.37;;
5961;SDS011;3007;50.770;0.250;2023-09-19T00:40:28;15.50;;;3.60;;
5961;SDS011;3007;50.770;0.250;2023-09-19T00:42:57;17.43;;;3.63;;
5961;SDS011;3007;50.770;0.250;2023-09-19T00:45:25;15.30;;;3.60;;
5961;SDS011;3007;50.770;0.250;2023-09-19T00:47:53;13.10;;;3.27;;
5961;SDS011;3007;50.770;0.250;2023-09-19T00:50:21;13.87;;;2.93;;
5961;SDS011;3007;50.770;0.250;2023-09-19T00:52:50;11.53;;;3.53;;
5961;SDS011;3007;50.770;0.250;2023-09-19T00:55:21;12.60;;;3.40;;
5961;SDS011;3007;50.770;0.250;2023-09-19T00:57:50;15.63;;;3.23;;
5961;SDS011;3007;50.770;0.250;2023-09-19T01:00:17;16.73;;;3.80;;
5961;SDS011;3007;50.770;0.250;2023-09-19T01:02:45;18.30;;;3.93;;
5961;SDS011;3007;50.770;0.250;2023-09-19T01:05:12;15.03;;;3.90;;
5961;SDS011;3007;50.770;0.250;2023-09-19T01:07:40;15.00;;;3.73;;
5961;SDS011;3007;50.770;0.250;2023-09-19T01:10:08;13.50;;;3.40;;
5961;SDS011;3007;50.770;0.250;2023-09-19T01:12:39;14.20;;;3.77;;
5961;SDS011;3007;50.770;0.250;2023-09-19T01:15:17;17.83;;;4.47;;
5961;SDS011;3007;50.770;0.250;2023-09-19T01:17:52;12.07;;;3.80;;
5961;SDS011;3007;50.770;0.250;2023-09-19T01:20:27;18.40;;;4.43;;
5961;SDS011;3007;50.770;0.250;2023-09-19T01:23:03;14.60;;;3.43;;
5961;SDS011;3007;50.770;0.250;2023-09-19T01:28:39;18.47;;;4.33;;
5961;SDS011;3007;50.770;0.250;2023-09-19T01:31:20;17.00;;;3.70;;
5961;SDS011;3007;50.770;0.250;2023-09-19T01:33:55;12.80;;;4.20;;
5961;SDS011;3007;50.770;0.250;2023-09-19T01:36:25;12.93;;;3.30;;
5961;SDS011;3007;50.770;0.250;2023-09-19T01:38:54;13.53;;;3.60;;
5961;SDS011;3007;50.770;0.250;2023-09-19T01:41:25;15.80;;;3.77;;
5961;SDS011;3007;50.770;0.250;2023-09-19T01:43:55;14.43;;;3.10;;
5961;SDS011;3007;50.770;0.250;2023-09-19T01:46:26;11.83;;;3.00;;
5961;SDS011;3007;50.770;0.250;2023-09-19T01:49:01;12.87;;;3.13;;
5961;SDS011;3007;50.770;0.250;2023-09-19T01:51:42;21.33;;;4.30;;
5961;SDS011;3007;50.770;0.250;2023-09-19T01:54:16;13.77;;;4.33;;
5961;SDS011;3007;50.770;0.250;2023-09-19T01:56:50;12.37;;;3.90;;
5961;SDS011;3007;50.770;0.250;2023-09-19T01:59:24;12.77;;;3.43;;
5961;SDS011;3007;50.770;0.250;2023-09-19T02:01:57;11.27;;;3.30;;
5961;SDS011;3007;50.770;0.250;2023-09-19T02:04:25;11.70;;;3.10;;
5961;SDS011;3007;50.770;0.250;2023-09-19T02:06:53;13.00;;;3.77;;
5961;SDS011;3007;50.770;0.250;2023-09-19T02:09:20;16.30;;;2.90;;
5961;SDS011;3007;50.770;0.250;2023-09-19T02:11:47;13.97;;;3.97;;
5961;SDS011;3007;50.770;0.250;2023-09-19T02:14:14;13.30;;;3.30;;
5961;SDS011;3007;50.770;0.250;2023-09-19T02:16:41;16.90;;;3.67;;
5961;SDS011;3007;50.770;0.250;2023-09-19T02:19:09;12.83;;;3.00;;
5961;SDS011;3007;50.770;0.250;2023-09-19T02:21:36;11.63;;;3.40;;
5961;SDS011;3007;50.770;0.250;2023-09-19T02:24:05;13.60;;;2.90;;
5961;SDS011;3007;50.770;0.250;2023-09-19T02:26:33;9.80;;;2.97;;
5961;SDS011;3007;50.770;0.250;2023-09-19T02:29:02;9.93;;;3.20;;
5961;SDS011;3007;50.770;0.250;2023-09-19T02:31:29;13.03;;;3.37;;
5961;SDS011;3007;50.770;0.250;2023-09-19T02:33:57;13.13;;;3.43;;
5961;SDS011;3007;50.770;0.250;2023-09-19T02:36:26;13.07;;;3.63;;
5961;SDS011;3007;50.770;0.250;2023-09-19T02:38:55;16.20;;;3.43;;
5961;SDS011;3007;50.770;0.250;2023-09-19T02:41:22;15.03;;;3.30;;
5961;SDS011;3007;50.770;0.250;2023-09-19T02:43:49;14.43;;;3.77;;
5961;SDS011;3007;50.770;0.250;2023-09-19T02:46:16;15.73;;;3.40;;
5961;SDS011;3007;50.770;0.250;2023-09-19T02:48:43;14.13;;;4.03;;
5961;SDS011;3007;50.770;0.250;2023-09-19T02:51:10;15.60;;;3.40;;
5961;SDS011;3007;50.770;0.250;2023-09-19T02:53:38;13.73;;;3.57;;
5961;SDS011;3007;50.770;0.250;2023-09-19T02:56:05;16.63;;;3.93;;
5961;SDS011;3007;50.770;0.250;2023-09-19T02:58:32;16.53;;;3.93;;
5961;SDS011;3007;50.770;0.250;2023-09-19T03:01:07;15.40;;;4.30;;
5961;SDS011;3007;50.770;0.250;2023-09-19T03:03:34;17.07;;;3.73;;
5961;SDS011;3007;50.770;0.250;2023-09-19T03:06:04;18.50;;;3.83;;
5961;SDS011;3007;50.770;0.250;2023-09-19T03:08:33;14.70;;;3.60;;
5961;SDS011;3007;50.770;0.250;2023-09-19T03:11:02;25.63;;;5.07;;
5961;SDS011;3007;50.770;0.250;2023-09-19T03:13:31;21.17;;;4.03;;
5961;SDS011;3007;50.770;0.250;2023-09-19T03:15:58;21.43;;;4.47;;
5961;SDS011;3007;50.770;0.250;2023-09-19T03:18:25;18.10;;;4.07;;
5961;SDS011;3007;50.770;0.250;2023-09-19T03:20:52;21.30;;;4.60;;
5961;SDS011;3007;50.770;0.250;2023-09-19T03:23:20;20.87;;;4.40;;
5961;SDS011;3007;50.770;0.250;2023-09-19T03:25:47;14.83;;;3.17;;
5961;SDS011;3007;50.770;0.250;2023-09-19T03:28:16;21.17;;;3.87;;
5961;SDS011;3007;50.770;0.250;2023-09-19T03:30:43;18.73;;;4.20;;
5961;SDS011;3007;50.770;0.250;2023-09-19T03:33:11;14.90;;;3.70;;
5961;SDS011;3007;50.770;0.250;2023-09-19T03:35:39;18.37;;;3.50;;
5961;SDS011;3007;50.770;0.250;2023-09-19T03:38:06;18.23;;;3.30;;
5961;SDS011;3007;50.770;0.250;2023-09-19T03:40:32;21.93;;;4.53;;
5961;SDS011;3007;50.770;0.250;2023-09-19T03:43:03;15.50;;;3.50;;
5961;SDS011;3007;50.770;0.250;2023-09-19T03:45:31;14.53;;;3.33;;
5961;SDS011;3007;50.770;0.250;2023-09-19T03:47:59;17.67;;;3.50;;
5961;SDS011;3007;50.770;0.250;2023-09-19T03:50:26;13.93;;;3.23;;
5961;SDS011;3007;50.770;0.250;2023-09-19T03:52:55;20.90;;;3.23;;
5961;SDS011;3007;50.770;0.250;2023-09-19T03:55:22;14.00;;;2.77;;
5961;SDS011;3007;50.770;0.250;2023-09-19T03:57:49;11.20;;;3.27;;
5961;SDS011;3007;50.770;0.250;2023-09-19T04:00:17;13.80;;;3.37;;
5961;SDS011;3007;50.770;0.250;2023-09-19T04:02:48;15.10;;;3.57;;
5961;SDS011;3007;50.770;0.250;2023-09-19T04:05:14;13.47;;;2.80;;
5961;SDS011;3007;50.770;0.250;2023-09-19T04:07:41;10.50;;;3.00;;
5961;SDS011;3007;50.770;0.250;2023-09-19T04:10:08;15.37;;;3.60;;
5961;SDS011;3007;50.770;0.250;2023-09-19T04:12:36;14.47;;;3.83;;
5961;SDS011;3007;50.770;0.250;2023-09-19T04:15:04;18.70;;;4.43;;
5961;SDS011;3007;50.770;0.250;2023-09-19T04:17:31;13.77;;;3.57;;
5961;SDS011;3007;50.770;0.250;2023-09-19T04:20:00;13.90;;;3.37;;
5961;SDS011;3007;50.770;0.250;2023-09-19T04:22:29;14.90;;;3.40;;
5961;SDS011;3007;50.770;0.250;2023-09-19T04:24:56;18.07;;;3.60;;
5961;SDS011;3007;50.770;0.250;2023-09-19T04:27:23;17.53;;;3.70;;
5961;SDS011;3007;50.770;0.250;2023-09-19T04:29:50;14.33;;;3.00;;
5961;SDS011;3007;50.770;0.250;2023-09-19T04:32:18;13.70;;;3.40;;
5961;SDS011;3007;50.770;0.250;2023-09-19T04:34:45;12.20;;;2.80;;
5961;SDS011;3007;50.770;0.250;2023-09-19T04:37:16;11.10;;;3.10;;
5961;SDS011;3007;50.770;0.250;2023-09-19T04:39:43;15.07;;;2.83;;
5961;SDS011;3007;50.770;0.250;2023-09-19T04:42:10;15.67;;;3.07;;
5961;SDS011;3007;50.770;0.250;2023-09-19T04:44:40;15.47;;;3.07;;
5961;SDS011;3007;50.770;0.250;2023-09-19T04:47:07;14.03;;;4.00;;
5961;SDS011;3007;50.770;0.250;2023-09-19T04:49:37;13.67;;;3.20;;
5961;SDS011;3007;50.770;0.250;2023-09-19T04:52:05;13.20;;;3.10;;
5961;SDS011;3007;50.770;0.250;2023-09-19T04:54:33;15.37;;;3.73;;
5961;SDS011;3007;50.770;0.250;2023-09-19T04:57:00;14.23;;;2.70;;
5961;SDS011;3007;50.770;0.250;2023-09-19T04:59:27;10.90;;;2.73;;
5961;SDS011;3007;50.770;0.250;2023-09-19T05:01:54;16.27;;;3.20;;
5961;SDS011;3007;50.770;0.250;2023-09-19T05:04:21;11.30;;;2.42;;
5961;SDS011;3007;50.770;0.250;2023-09-19T05:06:48;16.57;;;3.10;;
5961;SDS011;3007;50.770;0.250;2023-09-19T05:09:16;17.37;;;3.53;;
5961;SDS011;3007;50.770;0.250;2023-09-19T05:11:47;13.87;;;2.70;;
5961;SDS011;3007;50.770;0.250;2023-09-19T05:14:16;11.47;;;2.57;;
5961;SDS011;3007;50.770;0.250;2023-09-19T05:16:43;17.37;;;4.10;;
5961;SDS011;3007;50.770;0.250;2023-09-19T05:19:10;17.33;;;3.73;;
5961;SDS011;3007;50.770;0.250;2023-09-19T05:21:38;13.73;;;3.57;;
5961;SDS011;3007;50.770;0.250;2023-09-19T05:24:05;13.97;;;3.60;;
5961;SDS011;3007;50.770;0.250;2023-09-19T05:26:32;13.13;;;2.53;;
5961;SDS011;3007;50.770;0.250;2023-09-19T05:29:00;10.47;;;2.50;;
5961;SDS011;3007;50.770;0.250;2023-09-19T05:31:28;14.33;;;2.57;;
5961;SDS011;3007;50.770;0.250;2023-09-19T05:33:56;13.93;;;2.90;;
5961;SDS011;3007;50.770;0.250;2023-09-19T05:36:23;9.97;;;2.30;;
5961;SDS011;3007;50.770;0.250;2023-09-19T05:38:50;11.97;;;2.67;;
5961;SDS011;3007;50.770;0.250;2023-09-19T05:41:18;13.97;;;2.77;;
5961;SDS011;3007;50.770;0.250;2023-09-19T05:43:46;15.93;;;3.13;;
5961;SDS011;3007;50.770;0.250;2023-09-19T05:46:16;17.73;;;3.50;;
5961;SDS011;3007;50.770;0.250;2023-09-19T05:48:44;16.13;;;3.23;;
5961;SDS011;3007;50.770;0.250;2023-09-19T05:51:14;17.63;;;3.90;;
5961;SDS011;3007;50.770;0.250;2023-09-19T05:53:43;11.40;;;3.17;;
5961;SDS011;3007;50.770;0.250;2023-09-19T05:56:13;11.10;;;2.67;;
5961;SDS011;3007;50.770;0.250;2023-09-19T05:58:40;11.97;;;2.53;;
5961;SDS011;3007;50.770;0.250;2023-09-19T06:01:09;13.27;;;3.10;;
5961;SDS011;3007;50.770;0.250;2023-09-19T06:03:37;10.10;;;2.27;;
5961;SDS011;3007;50.770;0.250;2023-09-19T06:06:04;12.47;;;3.13;;
5961;SDS011;3007;50.770;0.250;2023-09-19T06:08:31;15.03;;;2.93;;
5961;SDS011;3007;50.770;0.250;2023-09-19T06:10:58;16.87;;;3.33;;
5961;SDS011;3007;50.770;0.250;2023-09-19T06:13:27;21.37;;;4.40;;
5961;SDS011;3007;50.770;0.250;2023-09-19T06:15:54;24.93;;;5.07;;
5961;SDS011;3007;50.770;0.250;2023-09-19T06:18:23;21.73;;;4.57;;
5961;SDS011;3007;50.770;0.250;2023-09-19T06:20:52;26.53;;;4.40;;
5961;SDS011;3007;50.770;0.250;2023-09-19T06:23:20;22.23;;;4.10;;
5961;SDS011;3007;50.770;0.250;2023-09-19T06:25:47;22.40;;;4.50;;
5961;SDS011;3007;50.770;0.250;2023-09-19T06:28:14;17.10;;;4.10;;
5961;SDS011;3007;50.770;0.250;2023-09-19T06:30:45;30.17;;;5.70;;
5961;SDS011;3007;50.770;0.250;2023-09-19T06:33:12;24.03;;;4.30;;
5961;SDS011;3007;50.770;0.250;2023-09-19T06:35:40;19.80;;;4.20;;
5961;SDS011;3007;50.770;0.250;2023-09-19T06:38:11;16.33;;;4.20;;
5961;SDS011;3007;50.770;0.250;2023-09-19T06:40:38;17.08;;;4.10;;
5961;SDS011;3007;50.770;0.250;2023-09-19T06:43:09;14.33;;;3.77;;
5961;SDS011;3007;50.770;0.250;2023-09-19T06:45:36;16.42;;;4.25;;
5961;SDS011;3007;50.770;0.250;2023-09-19T06:48:03;15.77;;;4.00;;
5961;SDS011;3007;50.770;0.250;2023-09-19T06:50:30;24.77;;;5.20;;
5961;SDS011;3007;50.770;0.250;2023-09-19T06:53:01;20.47;;;4.37;;
5961;SDS011;3007;50.770;0.250;2023-09-19T06:55:29;20.02;;;5.38;;
5961;SDS011;3007;50.770;0.250;2023-09-19T06:57:57;21.37;;;4.37;;
5961;SDS011;3007;50.770;0.250;2023-09-19T07:00:26;21.02;;;4.47;;
5961;SDS011;3007;50.770;0.250;2023-09-19T07:02:56;23.63;;;4.10;;
5961;SDS011;3007;50.770;0.250;2023-09-19T07:05:25;14.93;;;4.07;;
5961;SDS011;3007;50.770;0.250;2023-09-19T07:07:53;19.88;;;4.40;;
5961;SDS011;3007;50.770;0.250;2023-09-19T07:10:20;20.08;;;4.07;;
5961;SDS011;3007;50.770;0.250;2023-09-19T07:12:54;19.83;;;4.27;;
5961;SDS011;3007;50.770;0.250;2023-09-19T07:15:22;21.58;;;4.80;;
5961;SDS011;3007;50.770;0.250;2023-09-19T07:17:50;17.05;;;4.68;;
5961;SDS011;3007;50.770;0.250;2023-09-19T07:20:17;20.88;;;4.60;;
5961;SDS011;3007;50.770;0.250;2023-09-19T07:22:46;17.55;;;4.43;;
5961;SDS011;3007;50.770;0.250;2023-09-19T07:25:15;18.20;;;4.28;;
5961;SDS011;3007;50.770;0.250;2023-09-19T07:27:43;15.10;;;4.03;;
5961;SDS011;3007;50.770;0.250;2023-09-19T07:30:12;17.90;;;4.18;;
5961;SDS011;3007;50.770;0.250;2023-09-19T07:32:40;24.52;;;5.07;;
5961;SDS011;3007;50.770;0.250;2023-09-19T07:35:07;26.80;;;5.05;;
5961;SDS011;3007;50.770;0.250;2023-09-19T07:37:34;23.37;;;4.77;;
5961;SDS011;3007;50.770;0.250;2023-09-19T07:40:01;26.13;;;5.50;;
5961;SDS011;3007;50.770;0.250;2023-09-19T07:42:32;27.67;;;5.90;;
5961;SDS011;3007;50.770;0.250;2023-09-19T07:45:00;14.43;;;3.53;;
5961;SDS011;3007;50.770;0.250;2023-09-19T07:47:28;19.13;;;4.43;;
5961;SDS011;3007;50.770;0.250;2023-09-19T07:49:57;13.05;;;3.88;;
5961;SDS011;3007;50.770;0.250;2023-09-19T07:52:25;18.40;;;4.20;;
5961;SDS011;3007;50.770;0.250;2023-09-19T07:54:52;21.30;;;4.20;;
5961;SDS011;3007;50.770;0.250;2023-09-19T07:57:19;18.67;;;4.50;;
5961;SDS011;3007;50.770;0.250;2023-09-19T07:59:46;22.30;;;4.68;;
5961;SDS011;3007;50.770;0.250;2023-09-19T08:02:13;23.67;;;5.30;;
5961;SDS011;3007;50.770;0.250;2023-09-19T08:04:43;21.63;;;4.73;;
5961;SDS011;3007;50.770;0.250;2023-09-19T08:07:10;22.77;;;5.00;;
5961;SDS011;3007;50.770;0.250;2023-09-19T08:09:38;20.00;;;4.35;;
5961;SDS011;3007;50.770;0.250;2023-09-19T08:12:05;18.88;;;4.57;;
5961;SDS011;3007;50.770;0.250;2023-09-19T08:14:35;16.88;;;4.63;;
5961;SDS011;3007;50.770;0.250;2023-09-19T08:17:03;15.30;;;4.60;;
5961;SDS011;3007;50.770;0.250;2023-09-19T08:19:31;16.15;;;4.60;;
5961;SDS011;3007;50.770;0.250;2023-09-19T08:21:59;22.92;;;4.85;;
5961;SDS011;3007;50.770;0.250;2023-09-19T08:24:28;21.70;;;5.22;;
5961;SDS011;3007;50.770;0.250;2023-09-19T08:26:55;25.20;;;5.43;;
5961;SDS011;3007;50.770;0.250;2023-09-19T08:29:23;18.98;;;5.13;;
5961;SDS011;3007;50.770;0.250;2023-09-19T08:31:53;18.23;;;4.53;;
5961;SDS011;3007;50.770;0.250;2023-09-19T08:34:20;16.02;;;4.07;;
5961;SDS011;3007;50.770;0.250;2023-09-19T08:36:48;26.05;;;5.22;;
5961;SDS011;3007;50.770;0.250;2023-09-19T08:39:19;27.00;;;5.15;;
5961;SDS011;3007;50.770;0.250;2023-09-19T08:41:46;27.02;;;6.13;;
5961;SDS011;3007;50.770;0.250;2023-09-19T08:44:13;27.83;;;6.53;;
5961;SDS011;3007;50.770;0.250;2023-09-19T08:46:40;21.92;;;4.70;;
5961;SDS011;3007;50.770;0.250;2023-09-19T08:49:09;19.77;;;5.78;;
5961;SDS011;3007;50.770;0.250;2023-09-19T08:51:47;20.45;;;5.13;;
5961;SDS011;3007;50.770;0.250;2023-09-19T08:54:24;20.92;;;4.50;;
5961;SDS011;3007;50.770;0.250;2023-09-19T08:56:54;21.42;;;5.68;;
5961;SDS011;3007;50.770;0.250;2023-09-19T08:59:24;22.25;;;4.95;;
5961;SDS011;3007;50.770;0.250;2023-09-19T09:01:53;29.88;;;5.85;;
5961;SDS011;3007;50.770;0.250;2023-09-19T09:04:22;25.08;;;5.28;;
5961;SDS011;3007;50.770;0.250;2023-09-19T09:06:51;22.40;;;6.07;;
5961;SDS011;3007;50.770;0.250;2023-09-19T09:09:20;21.45;;;5.43;;
5961;SDS011;3007;50.770;0.250;2023-09-19T09:11:49;25.02;;;5.80;;
5961;SDS011;3007;50.770;0.250;2023-09-19T09:14:18;25.65;;;5.93;;
5961;SDS011;3007;50.770;0.250;2023-09-19T09:16:46;21.05;;;4.75;;
5961;SDS011;3007;50.770;0.250;2023-09-19T09:19:13;23.23;;;5.15;;
5961;SDS011;3007;50.770;0.250;2023-09-19T09:21:49;20.70;;;5.72;;
5961;SDS011;3007;50.770;0.250;2023-09-19T09:24:28;16.33;;;4.95;;
5961;SDS011;3007;50.770;0.250;2023-09-19T09:27:00;22.67;;;5.90;;
5961;SDS011;3007;50.770;0.250;2023-09-19T09:29:43;20.40;;;4.97;;
5961;SDS011;3007;50.770;0.250;2023-09-19T09:32:18;21.90;;;6.03;;
5961;SDS011;3007;50.770;0.250;2023-09-19T09:34:47;21.60;;;5.43;;
5961;SDS011;3007;50.770;0.250;2023-09-19T09:37:16;23.88;;;6.03;;
5961;SDS011;3007;50.770;0.250;2023-09-19T09:39:54;25.83;;;5.93;;
5961;SDS011;3007;50.770;0.250;2023-09-19T09:42:31;21.48;;;5.85;;
5961;SDS011;3007;50.770;0.250;2023-09-19T09:45:13;24.48;;;5.68;;
5961;SDS011;3007;50.770;0.250;2023-09-19T09:47:41;22.88;;;6.25;;
5961;SDS011;3007;50.770;0.250;2023-09-19T09:50:07;21.83;;;6.32;;
5961;SDS011;3007;50.770;0.250;2023-09-19T09:52:45;22.80;;;6.20;;
5961;SDS011;3007;50.770;0.250;2023-09-19T09:55:12;23.02;;;5.80;;
5961;SDS011;3007;50.770;0.250;2023-09-19T09:57:40;18.02;;;5.90;;
5961;SDS011;3007;50.770;0.250;2023-09-19T10:00:09;21.42;;;5.65;;
5961;SDS011;3007;50.770;0.250;2023-09-19T10:02:45;18.92;;;5.88;;
5961;SDS011;3007;50.770;0.250;2023-09-19T10:05:12;25.63;;;7.07;;
5961;SDS011;3007;50.770;0.250;2023-09-19T10:07:47;20.45;;;5.60;;
5961;SDS011;3007;50.770;0.250;2023-09-19T10:10:28;23.17;;;6.00;;
5961;SDS011;3007;50.770;0.250;2023-09-19T10:13:05;19.83;;;5.57;;
5961;SDS011;3007;50.770;0.250;2023-09-19T10:15:37;26.10;;;6.22;;
5961;SDS011;3007;50.770;0.250;2023-09-19T10:18:06;24.40;;;6.32;;
5961;SDS011;3007;50.770;0.250;2023-09-19T10:20:33;18.23;;;5.43;;
5961;SDS011;3007;50.770;0.250;2023-09-19T10:23:05;25.50;;;6.60;;
5961;SDS011;3007;50.770;0.250;2023-09-19T10:25:37;22.75;;;5.90;;
5961;SDS011;3007;50.770;0.250;2023-09-19T10:28:07;28.88;;;6.82;;
5961;SDS011;3007;50.770;0.250;2023-09-19T10:30:37;24.98;;;6.10;;
5961;SDS011;3007;50.770;0.250;2023-09-19T10:33:10;24.50;;;6.63;;
5961;SDS011;3007;50.770;0.250;2023-09-19T10:35:38;23.15;;;6.28;;
5961;SDS011;3007;50.770;0.250;2023-09-19T10:38:07;22.48;;;5.65;;
5961;SDS011;3007;50.770;0.250;2023-09-19T10:40:35;27.90;;;6.05;;
5961;SDS011;3007;50.770;0.250;2023-09-19T10:43:11;23.48;;;5.88;;
5961;SDS011;3007;50.770;0.250;2023-09-19T10:45:39;29.77;;;7.43;;
5961;SDS011;3007;50.770;0.250;2023-09-19T10:48:09;25.05;;;5.82;;
5961;SDS011;3007;50.770;0.250;2023-09-19T10:50:41;25.95;;;6.53;;
5961;SDS011;3007;50.770;0.250;2023-09-19T10:53:12;25.17;;;6.30;;
5961;SDS011;3007;50.770;0.250;2023-09-19T10:55:40;20.60;;;6.90;;
5961;SDS011;3007;50.770;0.250;2023-09-19T10:58:24;22.27;;;6.57;;
5961;SDS011;3007;50.770;0.250;2023-09-19T11:00:54;30.50;;;7.43;;
5961;SDS011;3007;50.770;0.250;2023-09-19T11:03:26;27.33;;;7.40;;
5961;SDS011;3007;50.770;0.250;2023-09-19T11:06:05;23.48;;;6.28;;
5961;SDS011;3007;50.770;0.250;2023-09-19T11:11:51;24.10;;;6.53;;
5961;SDS011;3007;50.770;0.250;2023-09-19T11:14:39;23.42;;;6.63;;
5961;SDS011;3007;50.770;0.250;2023-09-19T11:20:16;29.40;;;7.22;;
5961;SDS011;3007;50.770;0.250;2023-09-19T11:25:48;28.85;;;7.15;;
5961;SDS011;3007;50.770;0.250;2023-09-19T11:28:32;29.05;;;7.32;;
5961;SDS011;3007;50.770;0.250;2023-09-19T11:34:38;26.55;;;7.60;;
5961;SDS011;3007;50.770;0.250;2023-09-19T11:40:25;26.27;;;7.15;;
5961;SDS011;3007;50.770;0.250;2023-09-19T11:42:56;21.70;;;6.63;;
5961;SDS011;3007;50.770;0.250;2023-09-19T11:48:31;27.98;;;7.60;;
5961;SDS011;3007;50.770;0.250;2023-09-19T11:51:03;29.52;;;8.27;;
5961;SDS011;3007;50.770;0.250;2023-09-19T11:53:45;22.95;;;7.32;;
5961;SDS011;3007;50.770;0.250;2023-09-19T11:56:14;27.60;;;7.85;;
5961;SDS011;3007;50.770;0.250;2023-09-19T11:58:42;24.20;;;7.70;;
5961;SDS011;3007;50.770;0.250;2023-09-19T12:01:12;30.80;;;8.23;;
5961;SDS011;3007;50.770;0.250;2023-09-19T12:03:45;28.00;;;7.68;;
5961;SDS011;3007;50.770;0.250;2023-09-19T12:06:16;28.05;;;7.93;;
5961;SDS011;3007;50.770;0.250;2023-09-19T12:08:43;24.70;;;7.40;;
5961;SDS011;3007;50.770;0.250;2023-09-19T12:11:12;26.20;;;7.63;;
5961;SDS011;3007;50.770;0.250;2023-09-19T12:13:41;32.53;;;8.50;;
5961;SDS011;3007;50.770;0.250;2023-09-19T12:16:14;29.55;;;8.40;;
5961;SDS011;3007;50.770;0.250;2023-09-19T12:18:42;24.13;;;7.47;;
5961;SDS011;3007;50.770;0.250;2023-09-19T12:21:22;24.83;;;7.40;;
5961;SDS011;3007;50.770;0.250;2023-09-19T12:23:56;34.67;;;8.38;;
5961;SDS011;3007;50.770;0.250;2023-09-19T12:26:38;26.83;;;7.57;;
5961;SDS011;3007;50.770;0.250;2023-09-19T12:29:11;32.70;;;8.82;;
5961;SDS011;3007;50.770;0.250;2023-09-19T12:31:47;34.72;;;9.02;;
5961;SDS011;3007;50.770;0.250;2023-09-19T12:34:16;30.48;;;8.10;;
5961;SDS011;3007;50.770;0.250;2023-09-19T12:36:47;29.58;;;9.38;;
5961;SDS011;3007;50.770;0.250;2023-09-19T12:39:22;28.52;;;7.75;;
5961;SDS011;3007;50.770;0.250;2023-09-19T12:41:50;28.40;;;8.38;;
5961;SDS011;3007;50.770;0.250;2023-09-19T12:44:18;29.88;;;8.07;;
5961;SDS011;3007;50.770;0.250;2023-09-19T12:46:45;31.52;;;9.60;;
5961;SDS011;3007;50.770;0.250;2023-09-19T12:49:15;31.48;;;8.32;;
5961;SDS011;3007;50.770;0.250;2023-09-19T12:51:44;33.92;;;8.25;;
5961;SDS011;3007;50.770;0.250;2023-09-19T12:54:13;30.58;;;8.13;;
5961;SDS011;3007;50.770;0.250;2023-09-19T12:56:41;30.83;;;8.63;;
5961;SDS011;3007;50.770;0.250;2023-09-19T12:59:09;30.85;;;8.50;;
5961;SDS011;3007;50.770;0.250;2023-09-19T13:01:43;31.73;;;8.93;;
5961;SDS011;3007;50.770;0.250;2023-09-19T13:04:14;30.52;;;7.72;;
5961;SDS011;3007;50.770;0.250;2023-09-19T13:06:44;27.55;;;7.90;;
5961;SDS011;3007;50.770;0.250;2023-09-19T13:09:16;34.28;;;8.85;;
5961;SDS011;3007;50.770;0.250;2023-09-19T13:11:45;33.50;;;8.52;;
5961;SDS011;3007;50.770;0.250;2023-09-19T13:14:18;30.30;;;7.68;;
5961;SDS011;3007;50.770;0.250;2023-09-19T13:16:56;26.60;;;7.15;;
5961;SDS011;3007;50.770;0.250;2023-09-19T13:19:41;30.10;;;6.82;;
5961;SDS011;3007;50.770;0.250;2023-09-19T13:25:05;24.92;;;6.85;;
5961;SDS011;3007;50.770;0.250;2023-09-19T13:27:33;23.98;;;8.07;;
5961;SDS011;3007;50.770;0.250;2023-09-19T13:30:00;26.77;;;7.53;;
5961;SDS011;3007;50.770;0.250;2023-09-19T13:32:27;25.88;;;8.45;;
5961;SDS011;3007;50.770;0.250;2023-09-19T13:34:53;28.88;;;8.32;;
5961;SDS011;3007;50.770;0.250;2023-09-19T13:37:20;31.35;;;7.70;;
5961;SDS011;3007;50.770;0.250;2023-09-19T13:39:49;30.88;;;7.68;;
5961;SDS011;3007;50.770;0.250;2023-09-19T13:42:15;33.17;;;8.45;;
5961;SDS011;3007;50.770;0.250;2023-09-19T13:44:43;28.67;;;8.07;;
5961;SDS011;3007;50.770;0.250;2023-09-19T13:47:10;27.60;;;8.23;;
5961;SDS011;3007;50.770;0.250;2023-09-19T13:49:38;28.15;;;7.93;;
5961;SDS011;3007;50.770;0.250;2023-09-19T13:52:05;31.77;;;8.95;;
5961;SDS011;3007;50.770;0.250;2023-09-19T13:54:32;26.88;;;7.93;;
5961;SDS011;3007;50.770;0.250;2023-09-19T13:57:00;38.40;;;9.27;;
5961;SDS011;3007;50.770;0.250;2023-09-19T13:59:27;30.60;;;9.10;;
5961;SDS011;3007;50.770;0.250;2023-09-19T14:01:56;26.63;;;7.47;;
5961;SDS011;3007;50.770;0.250;2023-09-19T14:04:23;33.05;;;9.27;;
5961;SDS011;3007;50.770;0.250;2023-09-19T14:06:49;35.90;;;10.00;;
5961;SDS011;3007;50.770;0.250;2023-09-19T14:09:16;37.58;;;9.38;;
5961;SDS011;3007;50.770;0.250;2023-09-19T14:11:44;34.05;;;9.43;;
5961;SDS011;3007;50.770;0.250;2023-09-19T14:14:13;31.52;;;9.68;;
5961;SDS011;3007;50.770;0.250;2023-09-19T14:16:40;32.20;;;9.07;;
5961;SDS011;3007;50.770;0.250;2023-09-19T14:19:07;29.23;;;8.45;;
5961;SDS011;3007;50.770;0.250;2023-09-19T14:21:34;30.20;;;8.00;;
5961;SDS011;3007;50.770;0.250;2023-09-19T14:24:04;33.55;;;8.30;;
5961;SDS011;3007;50.770;0.250;2023-09-19T14:26:34;36.00;;;8.80;;
5961;SDS011;3007;50.770;0.250;2023-09-19T14:29:01;31.67;;;9.32;;
5961;SDS011;3007;50.770;0.250;2023-09-19T14:31:29;31.83;;;8.40;;
5961;SDS011;3007;50.770;0.250;2023-09-19T14:33:56;33.88;;;8.10;;
5961;SDS011;3007;50.770;0.250;2023-09-19T14:36:24;36.88;;;8.05;;
5961;SDS011;3007;50.770;0.250;2023-09-19T14:38:52;30.58;;;7.20;;
5961;SDS011;3007;50.770;0.250;2023-09-19T14:41:20;25.33;;;6.93;;
5961;SDS011;3007;50.770;0.250;2023-09-19T14:43:47;31.58;;;7.53;;
5961;SDS011;3007;50.770;0.250;2023-09-19T14:46:15;26.65;;;7.28;;
5961;SDS011;3007;50.770;0.250;2023-09-19T14:48:45;29.95;;;7.60;;
5961;SDS011;3007;50.770;0.250;2023-09-19T14:51:12;26.25;;;6.60;;
5961;SDS011;3007;50.770;0.250;2023-09-19T14:53:40;31.88;;;7.82;;
5961;SDS011;3007;50.770;0.250;2023-09-19T14:56:07;37.88;;;8.20;;
5961;SDS011;3007;50.770;0.250;2023-09-19T14:58:36;34.20;;;8.70;;
5961;SDS011;3007;50.770;0.250;2023-09-19T15:01:05;36.60;;;9.48;;
5961;SDS011;3007;50.770;0.250;2023-09-19T15:03:35;42.20;;;9.90;;
5961;SDS011;3007;50.770;0.250;2023-09-19T15:06:05;32.90;;;8.73;;
5961;SDS011;3007;50.770;0.250;2023-09-19T15:08:34;28.10;;;8.38;;
5961;SDS011;3007;50.770;0.250;2023-09-19T15:11:03;34.20;;;9.00;;
5961;SDS011;3007;50.770;0.250;2023-09-19T15:13:30;32.97;;;8.43;;
5961;SDS011;3007;50.770;0.250;2023-09-19T15:15:58;32.28;;;8.98;;
5961;SDS011;3007;50.770;0.250;2023-09-19T15:18:26;34.53;;;9.32;;
5961;SDS011;3007;50.770;0.250;2023-09-19T15:20:53;35.92;;;8.27;;
5961;SDS011;3007;50.770;0.250;2023-09-19T15:23:22;40.95;;;9.43;;
5961;SDS011;3007;50.770;0.250;2023-09-19T15:25:49;32.55;;;8.20;;
5961;SDS011;3007;50.770;0.250;2023-09-19T15:28:16;32.15;;;8.57;;
5961;SDS011;3007;50.770;0.250;2023-09-19T15:30:43;31.33;;;8.27;;
5961;SDS011;3007;50.770;0.250;2023-09-19T15:33:10;31.00;;;8.25;;
5961;SDS011;3007;50.770;0.250;2023-09-19T15:35:37;34.33;;;9.15;;
5961;SDS011;3007;50.770;0.250;2023-09-19T15:38:04;35.45;;;8.05;;
5961;SDS011;3007;50.770;0.250;2023-09-19T15:40:32;37.13;;;9.00;;